sensor_id;sensor_type;location;lat;lon;timestamp;pressure;altitude;pressure_sealevel;temperature;humidity
84083;BME280;74174;52.224;6.878;2023-11-18T00:00:48;102198.13;;;3.30;93.72
84083;BME280;74174;52.224;6.878;2023-11-18T00:03:14;102186.50;;;3.23;93.16
84083;BME280;74174;52.224;6.878;2023-11-18T00:05:39;102202.75;;;3.17;93.54
84083;BME280;74174;52.224;6.878;2023-11-18T00:08:05;102202.84;;;3.16;92.68
84083;BME280;74174;52.224;6.878;2023-11-18T00:10:31;102193.44;;;3.13;93.35
84083;BME280;74174;52.224;6.878;2023-11-18T00:12:56;102193.59;;;3.12;93.09
84083;BME280;74174;52.224;6.878;2023-11-18T00:15:22;102194.66;;;3.09;93.13
84083;BME280;74174;52.224;6.878;2023-11-18T00:17:47;102188.91;;;3.15;93.23
84083;BME280;74174;52.224;6.878;2023-11-18T00:20:12;102202.38;;;3.11;93.22
84083;BME280;74174;52.224;6.878;2023-11-18T00:22:39;102202.38;;;3.11;93.72
84083;BME280;74174;52.224;6.878;2023-11-18T00:25:06;102201.59;;;3.10;92.61
84083;BME280;74174;52.224;6.878;2023-11-18T00:27:36;102193.97;;;3.07;93.11
84083;BME280;74174;52.224;6.878;2023-11-18T00:30:05;102191.47;;;3.06;93.28
84083;BME280;74174;52.224;6.878;2023-11-18T00:32:33;102193.38;;;3.04;93.45
84083;BME280;74174;52.224;6.878;2023-11-18T00:34:58;102183.50;;;3.07;93.66
84083;BME280;74174;52.224;6.878;2023-11-18T00:37:23;102194.22;;;3.04;93.82
84083;BME280;74174;52.224;6.878;2023-11-18T00:39:49;102188.13;;;3.04;92.99
84083;BME280;74174;52.224;6.878;2023-11-18T00:42:14;102182.09;;;3.03;93.45
84083;BME280;74174;52.224;6.878;2023-11-18T00:44:40;102186.75;;;3.00;93.22
84083;BME280;74174;52.224;6.878;2023-11-18T00:47:06;102177.25;;;2.99;93.36
84083;BME280;74174;52.224;6.878;2023-11-18T00:49:31;102182.91;;;3.04;93.65
84083;BME280;74174;52.224;6.878;2023-11-18T00:51:59;102174.25;;;3.03;93.42
84083;BME280;74174;52.224;6.878;2023-11-18T00:54:24;102175.88;;;3.04;93.61
84083;BME280;74174;52.224;6.878;2023-11-18T00:56:50;102175.88;;;3.04;93.79
84083;BME280;74174;52.224;6.878;2023-11-18T00:59:16;102164.31;;;3.07;93.90
84083;BME280;74174;52.224;6.878;2023-11-18T01:01:41;102169.31;;;3.10;93.47
84083;BME280;74174;52.224;6.878;2023-11-18T01:04:07;102172.41;;;3.15;93.48
84083;BME280;74174;52.224;6.878;2023-11-18T01:06:34;102178.31;;;3.17;93.61
84083;BME280;74174;52.224;6.878;2023-11-18T01:08:59;102182.28;;;3.11;94.06
84083;BME280;74174;52.224;6.878;2023-11-18T01:11:26;102180.66;;;3.20;94.41
84083;BME280;74174;52.224;6.878;2023-11-18T01:13:51;102183.44;;;3.18;93.15
84083;BME280;74174;52.224;6.878;2023-11-18T01:16:18;102189.75;;;3.16;93.32
84083;BME280;74174;52.224;6.878;2023-11-18T01:18:44;102189.88;;;3.14;93.85
84083;BME280;74174;52.224;6.878;2023-11-18T01:21:11;102193.34;;;3.15;93.82
84083;BME280;74174;52.224;6.878;2023-11-18T01:23:37;102198.31;;;3.18;93.83
84083;BME280;74174;52.224;6.878;2023-11-18T01:26:06;102201.28;;;3.24;94.55
84083;BME280;74174;52.224;6.878;2023-11-18T01:28:36;102202.34;;;3.22;94.14
84083;BME280;74174;52.224;6.878;2023-11-18T01:31:05;102205.91;;;3.21;94.14
84083;BME280;74174;52.224;6.878;2023-11-18T01:33:38;102203.44;;;3.19;94.27
84083;BME280;74174;52.224;6.878;2023-11-18T01:36:06;102197.13;;;3.22;93.36
84083;BME280;74174;52.224;6.878;2023-11-18T01:38:33;102203.44;;;3.19;93.94
84083;BME280;74174;52.224;6.878;2023-11-18T01:40:58;102204.38;;;3.18;93.64
84083;BME280;74174;52.224;6.878;2023-11-18T01:43:26;102193.06;;;3.18;93.83
84083;BME280;74174;52.224;6.878;2023-11-18T01:45:51;102196.53;;;3.18;93.54
84083;BME280;74174;52.224;6.878;2023-11-18T01:48:19;102199.75;;;3.22;94.34
84083;BME280;74174;52.224;6.878;2023-11-18T01:50:45;102199.00;;;3.20;94.22
84083;BME280;74174;52.224;6.878;2023-11-18T01:53:13;102196.34;;;3.31;94.73
84083;BME280;74174;52.224;6.878;2023-11-18T01:55:39;102202.78;;;3.27;94.04
84083;BME280;74174;52.224;6.878;2023-11-18T01:58:05;102194.81;;;3.28;94.58
84083;BME280;74174;52.224;6.878;2023-11-18T02:00:41;102196.22;;;3.32;94.53
84083;BME280;74174;52.224;6.878;2023-11-18T02:03:07;102195.97;;;3.35;94.36
84083;BME280;74174;52.224;6.878;2023-11-18T02:05:34;102192.50;;;3.35;94.40
84083;BME280;74174;52.224;6.878;2023-11-18T02:08:03;102196.59;;;3.48;94.21
84083;BME280;74174;52.224;6.878;2023-11-18T02:10:57;102191.59;;;3.45;94.62
84083;BME280;74174;52.224;6.878;2023-11-18T02:13:31;102197.97;;;3.53;94.72
84083;BME280;74174;52.224;6.878;2023-11-18T02:15:58;102193.25;;;3.46;94.67
84083;BME280;74174;52.224;6.878;2023-11-18T02:18:31;102183.53;;;3.58;93.91
84083;BME280;74174;52.224;6.878;2023-11-18T02:20:57;102183.69;;;3.57;94.12
84083;BME280;74174;52.224;6.878;2023-11-18T02:23:24;102179.63;;;3.53;93.75
84083;BME280;74174;52.224;6.878;2023-11-18T02:25:50;102180.34;;;3.55;94.25
84083;BME280;74174;52.224;6.878;2023-11-18T02:28:15;102179.53;;;3.54;94.14
84083;BME280;74174;52.224;6.878;2023-11-18T02:30:42;102182.19;;;3.64;94.22
84083;BME280;74174;52.224;6.878;2023-11-18T02:33:27;102175.88;;;3.66;93.79
84083;BME280;74174;52.224;6.878;2023-11-18T02:36:30;102169.00;;;3.75;94.29
84083;BME280;74174;52.224;6.878;2023-11-18T02:39:04;102176.56;;;3.68;93.61
84083;BME280;74174;52.224;6.878;2023-11-18T02:41:36;102182.06;;;3.65;94.02
84083;BME280;74174;52.224;6.878;2023-11-18T02:44:04;102183.44;;;3.69;93.56
84083;BME280;74174;52.224;6.878;2023-11-18T02:46:36;102183.84;;;3.65;94.13
84083;BME280;74174;52.224;6.878;2023-11-18T02:49:02;102176.56;;;3.68;94.39
84083;BME280;74174;52.224;6.878;2023-11-18T02:51:28;102177.25;;;3.70;94.13
84083;BME280;74174;52.224;6.878;2023-11-18T02:53:56;102165.94;;;3.70;93.95
84083;BME280;74174;52.224;6.878;2023-11-18T02:56:22;102161.66;;;3.69;93.76
84083;BME280;74174;52.224;6.878;2023-11-18T02:58:47;102154.06;;;3.66;94.20
84083;BME280;74174;52.224;6.878;2023-11-18T03:01:13;102153.06;;;3.67;93.45
84083;BME280;74174;52.224;6.878;2023-11-18T03:03:38;102154.06;;;3.66;93.54
84083;BME280;74174;52.224;6.878;2023-11-18T03:06:04;102157.81;;;3.73;93.76
84083;BME280;74174;52.224;6.878;2023-11-18T03:08:31;102149.25;;;3.71;93.23
84083;BME280;74174;52.224;6.878;2023-11-18T03:10:56;102147.31;;;3.73;93.45
84083;BME280;74174;52.224;6.878;2023-11-18T03:13:23;102140.81;;;3.67;93.34
84083;BME280;74174;52.224;6.878;2023-11-18T03:15:50;102139.97;;;3.67;93.59
84083;BME280;74174;52.224;6.878;2023-11-18T03:18:17;102139.16;;;3.66;93.84
84083;BME280;74174;52.224;6.878;2023-11-18T03:20:42;102137.63;;;3.64;93.28
84083;BME280;74174;52.224;6.878;2023-11-18T03:23:08;102139.81;;;3.59;93.89
84083;BME280;74174;52.224;6.878;2023-11-18T03:25:34;102136.34;;;3.58;93.71
84083;BME280;74174;52.224;6.878;2023-11-18T03:28:00;102117.53;;;3.43;93.55
84083;BME280;74174;52.224;6.878;2023-11-18T03:30:25;102140.84;;;3.46;93.31
84083;BME280;74174;52.224;6.878;2023-11-18T03:32:51;102149.16;;;3.52;94.16
84083;BME280;74174;52.224;6.878;2023-11-18T03:35:16;102144.06;;;3.50;93.75
84083;BME280;74174;52.224;6.878;2023-11-18T03:37:41;102141.56;;;3.48;93.33
84083;BME280;74174;52.224;6.878;2023-11-18T03:40:12;102150.03;;;3.62;94.29
84083;BME280;74174;52.224;6.878;2023-11-18T03:42:38;102140.06;;;3.56;93.28
84083;BME280;74174;52.224;6.878;2023-11-18T03:45:05;102155.09;;;3.54;93.58
84083;BME280;74174;52.224;6.878;2023-11-18T03:47:31;102151.47;;;3.45;92.94
84083;BME280;74174;52.224;6.878;2023-11-18T03:49:56;102151.59;;;3.43;93.53
84083;BME280;74174;52.224;6.878;2023-11-18T03:52:22;102150.19;;;3.39;92.88
84083;BME280;74174;52.224;6.878;2023-11-18T03:54:48;102139.97;;;3.36;93.45
84083;BME280;74174;52.224;6.878;2023-11-18T03:57:13;102143.56;;;3.35;93.23
84083;BME280;74174;52.224;6.878;2023-11-18T03:59:39;102143.81;;;3.32;92.88
84083;BME280;74174;52.224;6.878;2023-11-18T04:02:06;102140.63;;;3.29;93.16
84083;BME280;74174;52.224;6.878;2023-11-18T04:04:32;102133.03;;;3.26;93.30
84083;BME280;74174;52.224;6.878;2023-11-18T04:06:57;102141.84;;;3.25;93.73
84083;BME280;74174;52.224;6.878;2023-11-18T04:09:26;102130.53;;;3.24;93.19
84083;BME280;74174;52.224;6.878;2023-11-18T04:11:52;102135.50;;;3.27;93.16
84083;BME280;74174;52.224;6.878;2023-11-18T04:14:17;102129.66;;;3.14;93.55
84083;BME280;74174;52.224;6.878;2023-11-18T04:16:45;102130.28;;;3.27;93.62
84083;BME280;74174;52.224;6.878;2023-11-18T04:19:10;102122.94;;;3.21;93.67
84083;BME280;74174;52.224;6.878;2023-11-18T04:21:36;102135.00;;;3.33;93.61
84083;BME280;74174;52.224;6.878;2023-11-18T04:24:01;102125.72;;;3.29;93.87
84083;BME280;74174;52.224;6.878;2023-11-18T04:26:27;102114.56;;;3.27;93.76
84083;BME280;74174;52.224;6.878;2023-11-18T04:28:52;102105.34;;;3.33;93.32
84083;BME280;74174;52.224;6.878;2023-11-18T04:31:18;102102.16;;;3.29;93.22
84083;BME280;74174;52.224;6.878;2023-11-18T04:33:43;102093.09;;;3.33;93.95
84083;BME280;74174;52.224;6.878;2023-11-18T04:36:09;102084.66;;;3.30;93.90
84083;BME280;74174;52.224;6.878;2023-11-18T04:38:35;102089.38;;;3.36;93.93
84083;BME280;74174;52.224;6.878;2023-11-18T04:41:01;102087.13;;;3.31;93.69
84083;BME280;74174;52.224;6.878;2023-11-18T04:43:29;102079.66;;;3.27;93.11
84083;BME280;74174;52.224;6.878;2023-11-18T04:45:55;102077.19;;;3.25;94.22
84083;BME280;74174;52.224;6.878;2023-11-18T04:48:21;102074.72;;;3.24;93.70
84083;BME280;74174;52.224;6.878;2023-11-18T04:50:47;102096.50;;;3.24;93.81
84083;BME280;74174;52.224;6.878;2023-11-18T04:53:12;102092.66;;;3.28;94.26
84083;BME280;74174;52.224;6.878;2023-11-18T04:55:38;102078.41;;;3.21;93.77
84083;BME280;74174;52.224;6.878;2023-11-18T04:58:04;102086.97;;;3.23;94.26
84083;BME280;74174;52.224;6.878;2023-11-18T05:00:35;102077.88;;;3.27;94.30
84083;BME280;74174;52.224;6.878;2023-11-18T05:03:01;102067.00;;;3.32;94.14
84083;BME280;74174;52.224;6.878;2023-11-18T05:05:26;102065.22;;;3.32;94.44
84083;BME280;74174;52.224;6.878;2023-11-18T05:07:51;102053.66;;;3.35;93.18
84083;BME280;74174;52.224;6.878;2023-11-18T05:10:17;102052.53;;;3.28;93.64
84083;BME280;74174;52.224;6.878;2023-11-18T05:12:43;102052.78;;;3.25;93.85
84083;BME280;74174;52.224;6.878;2023-11-18T05:15:09;102057.75;;;3.28;94.46
84083;BME280;74174;52.224;6.878;2023-11-18T05:17:38;102053.88;;;3.22;94.38
84083;BME280;74174;52.224;6.878;2023-11-18T05:20:04;102045.91;;;3.24;94.16
84083;BME280;74174;52.224;6.878;2023-11-18T05:22:30;102041.22;;;3.27;93.82
84083;BME280;74174;52.224;6.878;2023-11-18T05:24:57;102042.88;;;3.28;94.01
84083;BME280;74174;52.224;6.878;2023-11-18T05:27:22;102044.25;;;3.32;94.11
84083;BME280;74174;52.224;6.878;2023-11-18T05:29:48;102041.66;;;3.32;93.81
84083;BME280;74174;52.224;6.878;2023-11-18T05:32:20;102061.94;;;3.40;93.79
84083;BME280;74174;52.224;6.878;2023-11-18T05:34:46;102049.16;;;3.46;93.67
84083;BME280;74174;52.224;6.878;2023-11-18T05:37:11;102043.72;;;3.38;94.39
84083;BME280;74174;52.224;6.878;2023-11-18T05:39:37;102047.56;;;3.34;94.06
84083;BME280;74174;52.224;6.878;2023-11-18T05:42:08;102042.22;;;3.45;94.58
84083;BME280;74174;52.224;6.878;2023-11-18T05:44:36;102049.84;;;3.48;94.10
84083;BME280;74174;52.224;6.878;2023-11-18T05:47:03;102059.47;;;3.48;93.89
84083;BME280;74174;52.224;6.878;2023-11-18T05:49:28;102056.47;;;3.43;93.66
84083;BME280;74174;52.224;6.878;2023-11-18T05:51:54;102054.56;;;3.55;93.92
84083;BME280;74174;52.224;6.878;2023-11-18T05:54:19;102050.28;;;3.54;93.72
84083;BME280;74174;52.224;6.878;2023-11-18T05:56:45;102052.75;;;3.55;94.10
84083;BME280;74174;52.224;6.878;2023-11-18T05:59:10;102045.03;;;3.54;93.25
84083;BME280;74174;52.224;6.878;2023-11-18T06:01:36;102042.16;;;3.57;93.39
84083;BME280;74174;52.224;6.878;2023-11-18T06:04:05;102031.66;;;3.57;93.91
84083;BME280;74174;52.224;6.878;2023-11-18T06:06:33;102036.91;;;3.57;93.65
84083;BME280;74174;52.224;6.878;2023-11-18T06:08:59;102037.44;;;3.50;94.24
84083;BME280;74174;52.224;6.878;2023-11-18T06:11:30;102030.41;;;3.51;93.52
84083;BME280;74174;52.224;6.878;2023-11-18T06:13:55;102030.25;;;3.53;93.41
84083;BME280;74174;52.224;6.878;2023-11-18T06:16:22;102020.63;;;3.63;93.52
84083;BME280;74174;52.224;6.878;2023-11-18T06:18:54;102025.34;;;3.69;92.95
84083;BME280;74174;52.224;6.878;2023-11-18T06:21:21;102020.50;;;3.55;93.50
84083;BME280;74174;52.224;6.878;2023-11-18T06:23:50;102014.13;;;3.57;93.36
84083;BME280;74174;52.224;6.878;2023-11-18T06:26:16;102009.44;;;3.51;94.49
84083;BME280;74174;52.224;6.878;2023-11-18T06:28:43;102008.88;;;3.57;94.18
84083;BME280;74174;52.224;6.878;2023-11-18T06:31:09;101990.00;;;3.54;94.05
84083;BME280;74174;52.224;6.878;2023-11-18T06:33:40;102008.09;;;3.57;93.83
84083;BME280;74174;52.224;6.878;2023-11-18T06:36:18;102005.72;;;3.54;94.10
84083;BME280;74174;52.224;6.878;2023-11-18T06:38:50;102007.25;;;3.56;93.58
84083;BME280;74174;52.224;6.878;2023-11-18T06:41:17;102020.78;;;3.61;93.26
84083;BME280;74174;52.224;6.878;2023-11-18T06:43:44;102017.50;;;3.69;93.75
84083;BME280;74174;52.224;6.878;2023-11-18T06:46:19;102010.84;;;3.65;93.54
84083;BME280;74174;52.224;6.878;2023-11-18T06:48:47;102007.38;;;3.64;93.96
84083;BME280;74174;52.224;6.878;2023-11-18T06:51:13;102005.59;;;3.65;94.23
84083;BME280;74174;52.224;6.878;2023-11-18T06:53:40;102011.94;;;3.62;93.32
84083;BME280;74174;52.224;6.878;2023-11-18T06:56:06;102011.56;;;3.76;93.63
84083;BME280;74174;52.224;6.878;2023-11-18T06:58:32;102016.91;;;3.65;93.78
84083;BME280;74174;52.224;6.878;2023-11-18T07:00:57;102026.56;;;3.65;93.61
84083;BME280;74174;52.224;6.878;2023-11-18T07:03:23;102033.88;;;3.61;93.62
84083;BME280;74174;52.224;6.878;2023-11-18T07:05:48;102036.50;;;3.61;93.35
84083;BME280;74174;52.224;6.878;2023-11-18T07:08:14;102039.97;;;3.62;93.79
84083;BME280;74174;52.224;6.878;2023-11-18T07:10:40;102033.06;;;3.70;93.55
84083;BME280;74174;52.224;6.878;2023-11-18T07:13:06;102015.81;;;3.68;93.76
84083;BME280;74174;52.224;6.878;2023-11-18T07:15:34;102025.34;;;3.69;93.79
84083;BME280;74174;52.224;6.878;2023-11-18T07:18:01;102014.47;;;3.73;94.13
84083;BME280;74174;52.224;6.878;2023-11-18T07:20:26;102013.47;;;3.74;93.86
84083;BME280;74174;52.224;6.878;2023-11-18T07:22:52;102022.88;;;3.77;93.29
84083;BME280;74174;52.224;6.878;2023-11-18T07:25:17;102022.22;;;3.84;93.19
84083;BME280;74174;52.224;6.878;2023-11-18T07:27:43;102024.00;;;3.84;93.28
84083;BME280;74174;52.224;6.878;2023-11-18T07:30:08;102028.25;;;3.75;92.94
84083;BME280;74174;52.224;6.878;2023-11-18T07:32:36;102032.41;;;3.78;93.20
84083;BME280;74174;52.224;6.878;2023-11-18T07:35:01;102034.31;;;3.76;93.30
84083;BME280;74174;52.224;6.878;2023-11-18T07:37:27;102046.91;;;3.82;93.10
84083;BME280;74174;52.224;6.878;2023-11-18T07:39:52;102035.28;;;3.75;93.51
84083;BME280;74174;52.224;6.878;2023-11-18T07:42:20;102049.78;;;3.79;93.35
84083;BME280;74174;52.224;6.878;2023-11-18T07:44:46;102049.94;;;3.87;93.00
84083;BME280;74174;52.224;6.878;2023-11-18T07:47:13;102038.78;;;3.94;92.79
84083;BME280;74174;52.224;6.878;2023-11-18T07:49:41;102054.63;;;3.93;93.13
84083;BME280;74174;52.224;6.878;2023-11-18T07:52:06;102049.25;;;3.85;93.86
84083;BME280;74174;52.224;6.878;2023-11-18T07:54:32;102038.78;;;3.85;93.51
84083;BME280;74174;52.224;6.878;2023-11-18T07:56:58;102024.28;;;3.90;93.32
84083;BME280;74174;52.224;6.878;2023-11-18T07:59:23;102020.81;;;3.90;93.63
84083;BME280;74174;52.224;6.878;2023-11-18T08:01:49;102020.81;;;3.90;93.52
84083;BME280;74174;52.224;6.878;2023-11-18T08:04:15;102038.06;;;3.92;93.52
84083;BME280;74174;52.224;6.878;2023-11-18T08:06:42;102043.88;;;3.96;94.10
84083;BME280;74174;52.224;6.878;2023-11-18T08:09:09;102038.66;;;3.96;94.13
84083;BME280;74174;52.224;6.878;2023-11-18T08:11:38;102041.69;;;4.01;93.73
84083;BME280;74174;52.224;6.878;2023-11-18T08:14:09;102040.19;;;4.08;93.77
84083;BME280;74174;52.224;6.878;2023-11-18T08:16:35;102032.16;;;4.09;93.19
84083;BME280;74174;52.224;6.878;2023-11-18T08:19:01;102025.13;;;4.10;92.96
84083;BME280;74174;52.224;6.878;2023-11-18T08:21:33;102017.13;;;4.11;93.23
84083;BME280;74174;52.224;6.878;2023-11-18T08:23:59;102015.06;;;4.15;93.28
84083;BME280;74174;52.224;6.878;2023-11-18T08:26:25;102008.97;;;4.24;93.16
84083;BME280;74174;52.224;6.878;2023-11-18T08:28:51;102002.75;;;4.25;93.32
84083;BME280;74174;52.224;6.878;2023-11-18T08:31:17;101999.84;;;4.18;93.38
84083;BME280;74174;52.224;6.878;2023-11-18T08:33:42;102000.28;;;4.24;93.62
84083;BME280;74174;52.224;6.878;2023-11-18T08:36:08;101986.31;;;4.33;92.97
84083;BME280;74174;52.224;6.878;2023-11-18T08:38:34;101986.56;;;4.49;92.70
84083;BME280;74174;52.224;6.878;2023-11-18T08:41:00;101979.94;;;4.54;92.06
84083;BME280;74174;52.224;6.878;2023-11-18T08:43:25;101979.50;;;4.59;91.87
84083;BME280;74174;52.224;6.878;2023-11-18T08:45:54;101980.63;;;4.56;91.86
84083;BME280;74174;52.224;6.878;2023-11-18T08:48:21;101986.03;;;4.55;92.65
84083;BME280;74174;52.224;6.878;2023-11-18T08:50:48;101983.53;;;4.44;93.18
84083;BME280;74174;52.224;6.878;2023-11-18T08:53:13;101980.88;;;4.53;92.84
84083;BME280;74174;52.224;6.878;2023-11-18T08:55:43;101980.88;;;4.53;92.79
84083;BME280;74174;52.224;6.878;2023-11-18T08:58:19;101980.06;;;4.53;92.93
84083;BME280;74174;52.224;6.878;2023-11-18T09:00:48;101975.50;;;4.64;92.41
84083;BME280;74174;52.224;6.878;2023-11-18T09:03:16;101958.34;;;4.60;92.37
84083;BME280;74174;52.224;6.878;2023-11-18T09:06:02;101948.38;;;4.73;91.48
84083;BME280;74174;52.224;6.878;2023-11-18T09:08:36;101940.22;;;4.67;92.01
84083;BME280;74174;52.224;6.878;2023-11-18T09:11:09;101938.16;;;4.70;92.43
84083;BME280;74174;52.224;6.878;2023-11-18T09:13:43;101927.06;;;4.76;92.69
84083;BME280;74174;52.224;6.878;2023-11-18T09:16:25;101930.00;;;4.73;92.18
84083;BME280;74174;52.224;6.878;2023-11-18T09:18:55;101930.81;;;4.74;92.51
84083;BME280;74174;52.224;6.878;2023-11-18T09:21:21;101928.06;;;4.75;92.32
84083;BME280;74174;52.224;6.878;2023-11-18T09:23:50;101937.41;;;4.87;92.19
84083;BME280;74174;52.224;6.878;2023-11-18T09:26:16;101928.16;;;4.83;92.34
84083;BME280;74174;52.224;6.878;2023-11-18T09:28:42;101915.84;;;4.84;92.75
84083;BME280;74174;52.224;6.878;2023-11-18T09:31:07;101925.19;;;4.96;92.02
84083;BME280;74174;52.224;6.878;2023-11-18T09:33:38;101917.22;;;4.88;92.40
84083;BME280;74174;52.224;6.878;2023-11-18T09:36:08;101921.59;;;4.97;91.83
84083;BME280;74174;52.224;6.878;2023-11-18T09:38:38;101914.41;;;4.99;92.60
84083;BME280;74174;52.224;6.878;2023-11-18T09:41:06;101922.97;;;5.01;91.96
84083;BME280;74174;52.224;6.878;2023-11-18T09:43:42;101923.72;;;5.11;92.10
84083;BME280;74174;52.224;6.878;2023-11-18T09:46:11;101892.13;;;5.03;92.56
84083;BME280;74174;52.224;6.878;2023-11-18T09:48:47;101913.56;;;5.26;92.02
84083;BME280;74174;52.224;6.878;2023-11-18T09:51:20;101908.31;;;5.26;92.00
84083;BME280;74174;52.224;6.878;2023-11-18T09:53:52;101908.75;;;5.21;92.05
84083;BME280;74174;52.224;6.878;2023-11-18T09:56:43;101903.16;;;5.34;91.47
84083;BME280;74174;52.224;6.878;2023-11-18T09:59:32;101898.84;;;5.33;91.26
84083;BME280;74174;52.224;6.878;2023-11-18T10:02:03;101897.22;;;5.32;91.39
84083;BME280;74174;52.224;6.878;2023-11-18T10:04:31;101900.75;;;5.40;91.54
84083;BME280;74174;52.224;6.878;2023-11-18T10:06:58;101893.97;;;5.38;91.97
84083;BME280;74174;52.224;6.878;2023-11-18T10:09:24;101895.44;;;5.50;90.77
84083;BME280;74174;52.224;6.878;2023-11-18T10:11:54;101878.44;;;5.44;90.82
84083;BME280;74174;52.224;6.878;2023-11-18T10:14:30;101872.72;;;5.49;91.48
84083;BME280;74174;52.224;6.878;2023-11-18T10:16:56;101869.59;;;5.45;91.18
84083;BME280;74174;52.224;6.878;2023-11-18T10:19:22;101871.22;;;5.46;91.10
84083;BME280;74174;52.224;6.878;2023-11-18T10:21:51;101864.63;;;5.60;91.33
84083;BME280;74174;52.224;6.878;2023-11-18T10:24:16;101857.72;;;5.59;91.14
84083;BME280;74174;52.224;6.878;2023-11-18T10:26:53;101848.88;;;5.60;90.90
84083;BME280;74174;52.224;6.878;2023-11-18T10:29:19;101843.03;;;5.74;90.57
84083;BME280;74174;52.224;6.878;2023-11-18T10:31:45;101835.09;;;5.66;90.76
84083;BME280;74174;52.224;6.878;2023-11-18T10:34:12;101828.16;;;5.83;90.17
84083;BME280;74174;52.224;6.878;2023-11-18T10:36:41;101824.50;;;5.76;90.67
84083;BME280;74174;52.224;6.878;2023-11-18T10:39:11;101833.50;;;5.91;90.56
84083;BME280;74174;52.224;6.878;2023-11-18T10:41:42;101832.75;;;5.81;90.37
84083;BME280;74174;52.224;6.878;2023-11-18T10:44:09;101837.84;;;5.82;91.20
84083;BME280;74174;52.224;6.878;2023-11-18T10:46:42;101823.94;;;5.72;90.46
84083;BME280;74174;52.224;6.878;2023-11-18T10:49:16;101816.44;;;5.77;90.84
84083;BME280;74174;52.224;6.878;2023-11-18T10:51:43;101811.38;;;5.84;90.58
84083;BME280;74174;52.224;6.878;2023-11-18T10:54:12;101805.38;;;5.91;89.99
84083;BME280;74174;52.224;6.878;2023-11-18T10:57:01;101796.66;;;5.91;90.45
84083;BME280;74174;52.224;6.878;2023-11-18T10:59:32;101789.00;;;5.97;90.45
84083;BME280;74174;52.224;6.878;2023-11-18T11:01:58;101782.81;;;6.06;90.06
84083;BME280;74174;52.224;6.878;2023-11-18T11:04:23;101780.66;;;6.02;90.08
84083;BME280;74174;52.224;6.878;2023-11-18T11:06:49;101780.13;;;5.98;89.97
84083;BME280;74174;52.224;6.878;2023-11-18T11:09:19;101778.69;;;6.04;89.54
84083;BME280;74174;52.224;6.878;2023-11-18T11:14:20;101794.13;;;6.07;89.93
84083;BME280;74174;52.224;6.878;2023-11-18T11:16:52;101793.66;;;6.11;89.55
84083;BME280;74174;52.224;6.878;2023-11-18T11:19:31;101787.44;;;6.12;90.15
84083;BME280;74174;52.224;6.878;2023-11-18T11:22:07;101788.41;;;6.11;90.13
84083;BME280;74174;52.224;6.878;2023-11-18T11:27:56;101762.91;;;6.12;89.71
84083;BME280;74174;52.224;6.878;2023-11-18T11:30:40;101756.88;;;6.19;89.27
84083;BME280;74174;52.224;6.878;2023-11-18T11:33:36;101770.81;;;6.12;89.70
84083;BME280;74174;52.224;6.878;2023-11-18T11:36:11;101771.69;;;6.20;89.77
84083;BME280;74174;52.224;6.878;2023-11-18T11:38:37;101771.69;;;6.20;89.43
84083;BME280;74174;52.224;6.878;2023-11-18T11:41:04;101777.06;;;6.11;90.39
84083;BME280;74174;52.224;6.878;2023-11-18T11:43:32;101772.59;;;6.11;90.85
84083;BME280;74174;52.224;6.878;2023-11-18T11:46:01;101764.72;;;6.11;90.37
84083;BME280;74174;52.224;6.878;2023-11-18T11:48:29;101760.94;;;6.14;89.64
84083;BME280;74174;52.224;6.878;2023-11-18T11:53:44;101756.22;;;6.17;90.03
84083;BME280;74174;52.224;6.878;2023-11-18T11:56:13;101744.84;;;6.17;89.23
84083;BME280;74174;52.224;6.878;2023-11-18T11:58:46;101738.63;;;6.26;90.03
84083;BME280;74174;52.224;6.878;2023-11-18T12:01:27;101743.72;;;6.19;90.01
84083;BME280;74174;52.224;6.878;2023-11-18T12:03:57;101737.34;;;6.30;89.85
84083;BME280;74174;52.224;6.878;2023-11-18T12:06:26;101723.84;;;6.33;90.16
84083;BME280;74174;52.224;6.878;2023-11-18T12:08:53;101715.59;;;6.28;89.26
84083;BME280;74174;52.224;6.878;2023-11-18T12:11:20;101705.28;;;6.35;89.83
84083;BME280;74174;52.224;6.878;2023-11-18T12:17:06;101685.91;;;6.44;89.98
84083;BME280;74174;52.224;6.878;2023-11-18T12:19:38;101679.59;;;6.28;89.88
84083;BME280;74174;52.224;6.878;2023-11-18T12:22:13;101684.25;;;6.43;90.40
84083;BME280;74174;52.224;6.878;2023-11-18T12:25:28;101681.28;;;6.46;90.23
84083;BME280;74174;52.224;6.878;2023-11-18T12:33:09;101662.47;;;6.33;91.04
84083;BME280;74174;52.224;6.878;2023-11-18T12:41:38;101659.09;;;6.48;91.53
84083;BME280;74174;52.224;6.878;2023-11-18T12:46:50;101645.41;;;6.45;91.46
84083;BME280;74174;52.224;6.878;2023-11-18T12:49:18;101627.63;;;6.47;91.33
84083;BME280;74174;52.224;6.878;2023-11-18T12:51:55;101621.41;;;6.48;91.30
84083;BME280;74174;52.224;6.878;2023-11-18T12:54:22;101616.63;;;6.43;91.94
84083;BME280;74174;52.224;6.878;2023-11-18T12:56:50;101604.63;;;6.49;91.86
84083;BME280;74174;52.224;6.878;2023-11-18T12:59:19;101600.66;;;6.45;92.32
84083;BME280;74174;52.224;6.878;2023-11-18T13:01:49;101581.91;;;6.48;92.21
84083;BME280;74174;52.224;6.878;2023-11-18T13:04:25;101588.16;;;6.63;91.73
84083;BME280;74174;52.224;6.878;2023-11-18T13:06:51;101569.41;;;6.58;91.98
84083;BME280;74174;52.224;6.878;2023-11-18T13:09:17;101562.50;;;6.49;91.88
84083;BME280;74174;52.224;6.878;2023-11-18T13:11:53;101562.81;;;6.54;92.42
84083;BME280;74174;52.224;6.878;2023-11-18T13:14:22;101550.31;;;6.56;92.67
84083;BME280;74174;52.224;6.878;2023-11-18T13:16:51;101548.84;;;6.53;92.26
84083;BME280;74174;52.224;6.878;2023-11-18T13:19:27;101551.44;;;6.61;92.25
84083;BME280;74174;52.224;6.878;2023-11-18T13:21:59;101556.38;;;6.56;92.86
84083;BME280;74174;52.224;6.878;2023-11-18T13:24:26;101550.94;;;6.66;93.18
84083;BME280;74174;52.224;6.878;2023-11-18T13:26:54;101536.63;;;6.68;93.07
84083;BME280;74174;52.224;6.878;2023-11-18T13:29:21;101535.16;;;6.66;92.32
84083;BME280;74174;52.224;6.878;2023-11-18T13:31:47;101520.34;;;6.65;92.52